createdAt,value
2018-12-09T00:01:41.207Z,0.33
2018-12-09T00:04:11.101Z,0.40
2018-12-09T00:06:40.965Z,0.30
2018-12-09T00:09:18.865Z,0.30
2018-12-09T00:11:48.721Z,0.57
2018-12-09T00:14:18.579Z,0.70
2018-12-09T00:16:48.498Z,0.33
2018-12-09T00:19:18.329Z,0.30
2018-12-09T00:21:48.227Z,0.50
2018-12-09T00:24:18.219Z,1.40
2018-12-09T00:26:48.071Z,0.30
2018-12-09T00:29:17.937Z,0.30
2018-12-09T00:32:18.311Z,0.20
2018-12-09T00:34:48.209Z,0.40
2018-12-09T00:37:18.112Z,1.37
2018-12-09T00:39:47.991Z,2.17
2018-12-09T00:42:17.929Z,0.20
2018-12-09T00:44:47.863Z,0.30
2018-12-09T00:47:17.719Z,0.20
2018-12-09T00:49:51.015Z,0.73
2018-12-09T00:52:21.033Z,1.33
2018-12-09T00:54:50.921Z,0.43
2018-12-09T00:57:20.837Z,0.20
2018-12-09T00:59:50.625Z,0.23
2018-12-09T01:05:55.415Z,0.40
2018-12-09T01:08:25.329Z,0.20
2018-12-09T01:10:55.138Z,0.57
2018-12-09T01:13:24.949Z,0.10
2018-12-09T01:15:55.348Z,0.40
2018-12-09T01:18:25.253Z,0.10
2018-12-09T01:20:55.135Z,2.10
2018-12-09T01:23:25.931Z,0.23
2018-12-09T01:25:56.226Z,0.20
2018-12-09T01:28:26.232Z,0.17
2018-12-09T01:30:56.692Z,0.10
2018-12-09T01:33:26.742Z,1.10
2018-12-09T01:35:57.129Z,1.03
2018-12-09T01:38:27.461Z,0.10
2018-12-09T01:40:57.715Z,0.20
2018-12-09T01:43:27.446Z,0.30
2018-12-09T01:45:57.202Z,0.10
2018-12-09T01:48:27.360Z,0.13
2018-12-09T01:50:57.678Z,0.50
2018-12-09T01:54:38.552Z,0.20
2018-12-09T01:57:09.058Z,0.20
2018-12-09T01:59:38.786Z,0.20
2018-12-09T02:02:08.916Z,0.53
2018-12-09T02:04:39.116Z,0.20
2018-12-09T02:07:08.870Z,0.20
2018-12-09T02:09:38.662Z,0.37
2018-12-09T02:12:09.367Z,1.23
2018-12-09T02:14:39.168Z,1.50
2018-12-09T02:17:09.419Z,0.53
2018-12-09T02:19:39.686Z,0.40
2018-12-09T02:22:10.426Z,1.20
2018-12-09T02:24:40.194Z,1.43
2018-12-09T02:27:10.078Z,0.20
2018-12-09T02:29:39.858Z,2.57
2018-12-09T02:32:10.193Z,2.27
2018-12-09T02:34:47.044Z,0.70
2018-12-09T02:37:16.799Z,0.30
2018-12-09T02:39:46.549Z,0.70
2018-12-09T02:42:17.033Z,0.97
2018-12-09T02:44:47.130Z,0.40
2018-12-09T02:47:16.871Z,0.30
2018-12-09T02:49:46.900Z,0.50
2018-12-09T02:52:16.924Z,0.80
2018-12-09T02:54:47.196Z,0.27
2018-12-09T02:57:17.187Z,0.87
2018-12-09T02:59:47.016Z,2.07
2018-12-09T03:02:17.228Z,0.30
2018-12-09T03:04:47.550Z,0.60
2018-12-09T03:07:17.352Z,0.63
2018-12-09T03:09:47.232Z,0.47
2018-12-09T03:12:17.534Z,0.50
2018-12-09T03:14:47.730Z,0.67
2018-12-09T03:17:17.462Z,1.80
2018-12-09T03:19:47.297Z,1.00
2018-12-09T03:22:17.626Z,1.23
2018-12-09T03:24:47.758Z,3.47
2018-12-09T03:27:17.871Z,1.00
2018-12-09T03:29:47.680Z,0.63
2018-12-09T03:32:18.258Z,1.57
2018-12-09T03:34:48.632Z,1.80
2018-12-09T03:37:18.377Z,0.80
2018-12-09T03:39:48.137Z,2.63
2018-12-09T03:42:19.090Z,1.43
2018-12-09T03:44:49.175Z,5.37
2018-12-09T03:47:18.975Z,1.23
2018-12-09T03:49:49.136Z,3.80
2018-12-09T03:52:19.636Z,6.10
2018-12-09T03:54:49.417Z,4.57
2018-12-09T03:57:19.193Z,5.30
2018-12-09T03:59:48.985Z,6.10
2018-12-09T04:02:18.770Z,6.10
2018-12-09T04:04:49.495Z,5.77
2018-12-09T04:07:19.321Z,5.40
2018-12-09T04:09:49.120Z,8.90
2018-12-09T04:12:18.901Z,3.27
2018-12-09T04:14:49.341Z,4.07
2018-12-09T04:17:19.127Z,5.13
2018-12-09T04:19:49.735Z,9.00
2018-12-09T04:22:19.981Z,7.00
2018-12-09T04:24:49.865Z,8.73
2018-12-09T04:27:19.945Z,6.97
2018-12-09T04:29:49.687Z,9.33
2018-12-09T04:32:19.781Z,6.63
2018-12-09T04:34:50.008Z,7.50
2018-12-09T04:37:19.769Z,7.37
2018-12-09T04:39:49.519Z,11.47
2018-12-09T04:42:19.302Z,11.33
2018-12-09T04:44:49.341Z,8.90
2018-12-09T04:47:19.383Z,8.30
2018-12-09T04:49:49.147Z,8.87
2018-12-09T04:52:18.936Z,9.27
2018-12-09T04:54:48.753Z,5.70
2018-12-09T04:57:19.117Z,5.90
2018-12-09T04:59:50.782Z,7.37
2018-12-09T05:02:20.721Z,4.20
2018-12-09T05:04:50.623Z,9.93
2018-12-09T05:07:20.952Z,5.67
2018-12-09T05:09:51.066Z,4.30
2018-12-09T05:12:20.899Z,4.63
2018-12-09T05:14:50.687Z,4.17
2018-12-09T05:17:20.909Z,5.37
2018-12-09T05:19:50.984Z,4.47
2018-12-09T05:22:21.088Z,4.93
2018-12-09T05:24:50.944Z,6.00
2018-12-09T05:27:21.242Z,5.70
2018-12-09T05:33:26.662Z,11.70
2018-12-09T05:35:56.496Z,5.60
2018-12-09T05:38:26.276Z,6.13
2018-12-09T05:40:57.088Z,3.67
2018-12-09T05:43:26.854Z,6.23
2018-12-09T05:50:20.698Z,1.57
2018-12-09T05:52:50.778Z,4.47
2018-12-09T05:55:20.808Z,2.90
2018-12-09T05:57:50.714Z,2.80
2018-12-09T06:01:21.322Z,3.13
2018-12-09T06:03:51.362Z,2.23
2018-12-09T06:06:21.148Z,3.37
2018-12-09T06:08:50.934Z,4.40
2018-12-09T06:11:20.778Z,3.47
2018-12-09T06:13:50.850Z,4.77
2018-12-09T06:16:20.892Z,3.80
2018-12-09T06:18:50.736Z,6.50
2018-12-09T06:21:21.070Z,8.60
2018-12-09T06:23:50.886Z,3.60
2018-12-09T06:26:20.768Z,3.60
2018-12-09T06:28:50.624Z,2.10
2018-12-09T06:31:20.452Z,7.90
2018-12-09T06:33:50.511Z,7.53
2018-12-09T06:36:20.340Z,7.50
2018-12-09T06:38:50.230Z,7.97
2018-12-09T06:41:20.045Z,6.50
2018-12-09T06:43:49.794Z,6.47
2018-12-09T06:46:19.574Z,6.47
2018-12-09T06:48:49.350Z,3.47
2018-12-09T06:51:19.391Z,5.60
2018-12-09T06:53:49.852Z,3.77
2018-12-09T06:56:19.687Z,3.50
2018-12-09T06:58:49.485Z,5.57
2018-12-09T07:01:19.397Z,2.60
2018-12-09T07:03:49.172Z,5.23
2018-12-09T07:06:19.224Z,1.47
2018-12-09T07:08:49.253Z,3.33
2018-12-09T07:11:19.478Z,1.07
2018-12-09T07:13:49.792Z,1.30
2018-12-09T07:16:19.582Z,1.77
2018-12-09T07:18:49.606Z,1.43
2018-12-09T07:21:19.493Z,1.17
2018-12-09T07:23:49.235Z,2.63
2018-12-09T07:26:19.287Z,4.30
2018-12-09T07:28:49.429Z,2.53
2018-12-09T07:31:19.389Z,1.37
2018-12-09T07:33:49.541Z,2.03
2018-12-09T07:36:19.384Z,5.83
2018-12-09T07:38:49.791Z,2.57
2018-12-09T07:41:19.807Z,3.70
2018-12-09T07:43:49.617Z,4.67
2018-12-09T07:46:19.411Z,3.27
2018-12-09T07:48:49.177Z,5.20
2018-12-09T07:51:19.207Z,8.43
2018-12-09T07:53:49.173Z,5.20
2018-12-09T07:56:18.973Z,9.60
2018-12-09T07:58:48.770Z,6.47
2018-12-09T08:01:18.604Z,7.93
2018-12-09T08:03:48.586Z,7.17
2018-12-09T08:09:54.428Z,8.23
2018-12-09T08:12:24.545Z,10.63
2018-12-09T08:14:54.351Z,6.30
2018-12-09T08:17:24.865Z,7.50
2018-12-09T08:19:55.009Z,7.10
2018-12-09T08:22:24.953Z,8.90
2018-12-09T08:24:55.330Z,8.40
2018-12-09T08:27:25.397Z,4.10
2018-12-09T08:29:55.518Z,2.90
2018-12-09T08:32:25.334Z,5.87
2018-12-09T08:34:55.294Z,3.50
2018-12-09T08:37:25.132Z,3.00
2018-12-09T08:39:54.927Z,4.23
2018-12-09T08:42:24.749Z,4.83
2018-12-09T08:44:54.550Z,4.77
2018-12-09T08:47:24.536Z,3.93
2018-12-09T08:49:54.949Z,1.47
2018-12-09T08:52:24.802Z,4.17
2018-12-09T08:54:55.558Z,0.50
2018-12-09T08:57:25.363Z,1.50
2018-12-09T08:59:55.322Z,2.73
2018-12-09T09:02:25.483Z,4.50
2018-12-09T09:04:55.306Z,8.00
2018-12-09T09:07:25.147Z,3.03
2018-12-09T09:09:55.019Z,6.20
2018-12-09T09:12:24.914Z,4.73
2018-12-09T09:14:54.754Z,5.80
2018-12-09T09:17:24.595Z,10.40
2018-12-09T09:19:54.396Z,8.73
2018-12-09T09:22:24.200Z,8.57
2018-12-09T09:24:54.166Z,8.60
2018-12-09T09:27:23.932Z,10.40
2018-12-09T09:29:53.724Z,9.37
2018-12-09T09:32:23.632Z,11.47
2018-12-09T09:34:53.481Z,11.27
2018-12-09T09:37:23.911Z,10.47
2018-12-09T09:39:53.728Z,13.53
2018-12-09T09:42:24.115Z,7.33
2018-12-09T09:44:53.899Z,10.67
2018-12-09T09:47:23.704Z,11.90
2018-12-09T09:49:53.731Z,11.13
2018-12-09T09:52:23.538Z,13.27
2018-12-09T09:54:53.349Z,12.80
2018-12-09T09:57:23.157Z,11.90
2018-12-09T09:59:52.971Z,10.23
2018-12-09T10:02:22.933Z,11.27
2018-12-09T10:04:52.713Z,8.60
2018-12-09T10:07:27.665Z,7.73
2018-12-09T10:09:57.945Z,10.77
2018-12-09T10:12:27.819Z,13.07
2018-12-09T10:14:58.323Z,13.43
2018-12-09T10:17:28.189Z,10.60
2018-12-09T10:19:57.983Z,11.40
2018-12-09T10:22:27.796Z,14.53
2018-12-09T10:24:57.587Z,10.13
2018-12-09T10:27:27.443Z,9.67
2018-12-09T10:29:57.946Z,10.70
2018-12-09T10:32:27.878Z,18.37
2018-12-09T10:34:58.040Z,7.67
2018-12-09T10:37:27.922Z,12.27
2018-12-09T10:39:57.764Z,14.13
2018-12-09T10:42:27.647Z,12.50
2018-12-09T10:44:58.847Z,9.00
2018-12-09T10:47:28.792Z,7.83
2018-12-09T10:49:58.601Z,10.73
2018-12-09T10:52:28.453Z,12.23
2018-12-09T10:54:58.277Z,14.63
2018-12-09T10:57:28.102Z,11.50
2018-12-09T10:59:58.566Z,12.70
2018-12-09T11:02:28.480Z,11.20
2018-12-09T11:04:58.290Z,11.50
2018-12-09T11:07:28.340Z,10.20
2018-12-09T11:09:58.204Z,8.77
2018-12-09T11:12:28.180Z,11.73
2018-12-09T11:14:57.984Z,13.77
2018-12-09T11:17:27.835Z,8.63
2018-12-09T11:19:57.693Z,13.00
2018-12-09T11:22:28.111Z,12.03
2018-12-09T11:24:58.301Z,11.93
2018-12-09T11:27:28.117Z,10.60
2018-12-09T11:29:57.969Z,6.03
2018-12-09T11:32:28.245Z,9.57
2018-12-09T11:34:58.692Z,9.03
2018-12-09T11:37:28.531Z,12.37
2018-12-09T11:39:58.338Z,7.53
2018-12-09T11:42:28.190Z,7.30
2018-12-09T11:44:57.971Z,8.67
2018-12-09T11:47:29.073Z,12.50
2018-12-09T11:49:58.876Z,6.83
2018-12-09T11:52:28.774Z,8.03
2018-12-09T11:54:58.861Z,7.43
2018-12-09T11:57:28.682Z,7.03
2018-12-09T11:59:58.529Z,8.13
2018-12-09T12:02:28.307Z,10.30
2018-12-09T12:04:58.420Z,8.67
2018-12-09T12:07:28.208Z,6.67
2018-12-09T12:09:58.072Z,7.23
2018-12-09T12:12:28.284Z,8.47
2018-12-09T12:14:58.927Z,8.20
2018-12-09T12:17:28.846Z,8.40
2018-12-09T12:19:59.022Z,7.30
2018-12-09T12:22:28.913Z,5.00
2018-12-09T12:24:59.751Z,8.00
2018-12-09T12:27:29.658Z,7.63
2018-12-09T12:29:59.628Z,9.17
2018-12-09T12:32:30.151Z,6.03
2018-12-09T12:34:59.963Z,4.50
2018-12-09T12:37:29.829Z,6.70
2018-12-09T12:39:59.935Z,4.73
2018-12-09T12:42:29.781Z,6.00
2018-12-09T12:44:59.897Z,6.40
2018-12-09T12:47:29.708Z,8.83
2018-12-09T12:49:59.551Z,6.97
2018-12-09T12:52:30.029Z,6.80
2018-12-09T12:55:00.310Z,5.13
2018-12-09T12:57:30.138Z,7.50
2018-12-09T12:59:59.965Z,6.13
2018-12-09T13:02:30.019Z,6.27
2018-12-09T13:04:59.859Z,5.77
2018-12-09T13:07:29.697Z,4.17
2018-12-09T13:09:59.521Z,4.97
2018-12-09T13:12:29.766Z,7.73
2018-12-09T13:14:59.774Z,6.30
2018-12-09T13:17:29.917Z,6.00
2018-12-09T13:19:59.765Z,4.63
2018-12-09T13:22:29.730Z,2.47
2018-12-09T13:24:59.580Z,3.13
2018-12-09T13:27:30.140Z,5.23
2018-12-09T13:30:00.008Z,4.30
2018-12-09T13:32:29.848Z,7.30
2018-12-09T13:34:59.691Z,3.10
2018-12-09T13:37:29.839Z,4.73
2018-12-09T13:39:59.770Z,7.73
2018-12-09T13:43:59.211Z,3.23
2018-12-09T13:46:29.052Z,2.20
2018-12-09T13:48:58.949Z,6.77
2018-12-09T13:51:29.608Z,2.30
2018-12-09T13:53:59.536Z,5.57
2018-12-09T13:56:29.349Z,2.70
2018-12-09T13:58:59.136Z,1.77
2018-12-09T14:01:29.006Z,1.40
2018-12-09T14:07:35.281Z,3.10
2018-12-09T14:10:06.582Z,3.73
2018-12-09T14:12:36.840Z,2.37
2018-12-09T14:15:09.052Z,2.63
2018-12-09T14:17:39.278Z,2.90
2018-12-09T14:20:11.145Z,3.77
2018-12-09T14:22:41.092Z,7.50
2018-12-09T14:25:11.377Z,4.57
2018-12-09T14:27:41.355Z,1.43
2018-12-09T14:30:11.947Z,2.20
2018-12-09T14:32:41.828Z,4.53
2018-12-09T14:35:12.950Z,2.87
2018-12-09T14:37:42.825Z,7.07
2018-12-09T14:40:13.430Z,3.13
2018-12-09T14:42:44.192Z,2.87
2018-12-09T14:45:14.453Z,1.87
2018-12-09T14:47:44.368Z,3.00
2018-12-09T14:50:14.843Z,2.33
2018-12-09T14:52:44.671Z,4.00
2018-12-09T14:55:14.619Z,1.60
2018-12-09T14:57:45.385Z,1.43
2018-12-09T15:00:15.297Z,1.93
2018-12-09T15:02:45.234Z,3.57
2018-12-09T15:05:15.216Z,6.83
2018-12-09T15:07:49.025Z,4.40
2018-12-09T15:10:18.975Z,2.23
2018-12-09T15:12:48.883Z,1.60
2018-12-09T15:15:18.805Z,1.63
2018-12-09T15:17:48.835Z,2.63
2018-12-09T15:20:18.784Z,1.03
2018-12-09T15:22:48.665Z,1.23
2018-12-09T15:25:18.566Z,1.77
2018-12-09T15:27:48.545Z,3.43
2018-12-09T15:30:19.634Z,4.30
2018-12-09T15:32:49.493Z,2.10
2018-12-09T15:35:19.515Z,3.33
2018-12-09T15:37:49.633Z,2.07
2018-12-09T15:40:21.484Z,3.33
2018-12-09T15:42:51.786Z,3.13
2018-12-09T15:45:21.622Z,1.80
2018-12-09T15:47:52.393Z,3.10
2018-12-09T15:50:26.545Z,3.57
2018-12-09T15:52:56.498Z,1.70
2018-12-09T15:55:26.409Z,4.60
2018-12-09T15:57:56.796Z,3.30
2018-12-09T16:00:30.684Z,2.43
2018-12-09T16:03:00.613Z,4.90
2018-12-09T16:05:30.456Z,2.07
2018-12-09T16:08:00.395Z,1.13
2018-12-09T16:10:30.319Z,1.70
2018-12-09T16:13:00.270Z,1.90
2018-12-09T16:15:30.807Z,2.77
2018-12-09T16:18:00.692Z,1.30
2018-12-09T16:20:30.536Z,0.90
2018-12-09T16:23:00.397Z,1.57
2018-12-09T16:25:30.295Z,1.83
2018-12-09T16:28:00.269Z,1.80
2018-12-09T16:30:30.228Z,1.70
2018-12-09T16:33:00.569Z,1.03
2018-12-09T16:35:30.499Z,1.70
2018-12-09T16:38:00.359Z,1.30
2018-12-09T16:44:05.760Z,1.50
2018-12-09T16:46:35.594Z,1.93
2018-12-09T16:49:05.494Z,3.07
2018-12-09T16:51:35.334Z,1.83
2018-12-09T16:54:05.282Z,0.40
2018-12-09T16:56:35.233Z,0.70
2018-12-09T16:59:05.346Z,1.30
2018-12-09T17:01:35.203Z,2.90
2018-12-09T17:04:05.474Z,3.80
2018-12-09T17:06:35.250Z,2.47
2018-12-09T17:09:07.506Z,1.17
2018-12-09T17:11:37.717Z,0.53
2018-12-09T17:14:07.600Z,2.13
2018-12-09T17:16:37.578Z,2.20
2018-12-09T17:19:07.454Z,3.40
2018-12-09T17:21:37.369Z,2.40
2018-12-09T17:24:07.606Z,2.60
2018-12-09T17:26:38.070Z,1.70
2018-12-09T17:29:07.564Z,3.90
2018-12-09T17:31:38.130Z,0.87
2018-12-09T17:34:07.998Z,1.43
2018-12-09T17:36:37.871Z,1.77
2018-12-09T17:39:09.874Z,1.23
2018-12-09T17:41:39.670Z,2.50
2018-12-09T17:44:09.874Z,2.17
2018-12-09T17:46:39.692Z,2.23
2018-12-09T17:49:09.636Z,4.80
2018-12-09T17:51:39.566Z,1.87
2018-12-09T17:54:09.420Z,3.07
2018-12-09T17:56:40.034Z,3.20
2018-12-09T17:59:10.648Z,4.00
2018-12-09T18:01:40.458Z,3.07
2018-12-09T18:04:11.091Z,2.57
2018-12-09T18:06:40.856Z,1.03
2018-12-09T18:09:10.784Z,2.93
2018-12-09T18:11:40.540Z,3.07
2018-12-09T18:14:12.055Z,2.60
2018-12-09T18:16:41.978Z,3.50
2018-12-09T18:19:11.789Z,3.77
2018-12-09T18:21:41.895Z,8.10
2018-12-09T18:24:11.748Z,2.40
2018-12-09T18:26:41.599Z,3.73
2018-12-09T18:29:11.843Z,2.03
2018-12-09T18:31:42.719Z,2.57
2018-12-09T18:34:14.525Z,5.23
2018-12-09T18:36:44.370Z,2.63
2018-12-09T18:39:14.619Z,1.23
2018-12-09T18:41:44.633Z,10.30
2018-12-09T18:44:14.467Z,3.67
2018-12-09T18:46:44.363Z,2.80
2018-12-09T18:49:14.221Z,1.13
2018-12-09T18:51:44.150Z,1.97
2018-12-09T18:57:49.465Z,2.93
2018-12-09T19:00:19.235Z,2.07
2018-12-09T19:02:49.647Z,1.03
2018-12-09T19:05:19.544Z,2.27
2018-12-09T19:07:49.366Z,2.40
2018-12-09T19:10:20.024Z,1.40
2018-12-09T19:12:49.846Z,2.53
2018-12-09T19:15:19.666Z,2.77
2018-12-09T19:17:49.789Z,3.73
2018-12-09T19:20:19.607Z,2.33
2018-12-09T19:22:49.512Z,2.93
2018-12-09T19:25:19.335Z,4.03
2018-12-09T19:27:49.142Z,3.40
2018-12-09T19:30:19.437Z,2.73
2018-12-09T19:32:51.463Z,4.00
2018-12-09T19:35:21.854Z,8.53
2018-12-09T19:37:52.209Z,2.07
2018-12-09T19:40:22.827Z,1.90
2018-12-09T19:42:53.496Z,1.83
2018-12-09T19:45:24.202Z,1.17
2018-12-09T19:47:55.845Z,1.87
2018-12-09T19:50:27.071Z,3.37
2018-12-09T19:56:33.455Z,1.23
2018-12-09T19:59:04.608Z,0.80
2018-12-09T20:01:35.855Z,1.73
2018-12-09T20:04:06.768Z,1.70
2018-12-09T20:06:36.654Z,1.70
2018-12-09T20:09:09.018Z,2.30
2018-12-09T20:11:38.851Z,2.70
2018-12-09T20:14:08.686Z,2.83
2018-12-09T20:16:38.537Z,1.23
2018-12-09T20:19:08.394Z,2.70
2018-12-09T20:21:38.277Z,1.70
2018-12-09T20:24:08.075Z,1.43
2018-12-09T20:26:37.910Z,1.40
2018-12-09T20:29:07.830Z,0.80
2018-12-09T20:31:37.940Z,0.47
2018-12-09T20:34:07.792Z,1.43
2018-12-09T20:36:38.166Z,0.93
2018-12-09T20:39:09.719Z,0.93
2018-12-09T20:41:39.590Z,0.70
2018-12-09T20:47:46.547Z,1.07
2018-12-09T20:50:16.904Z,0.90
2018-12-09T20:52:46.724Z,0.70
2018-12-09T20:55:16.529Z,0.37
2018-12-09T20:57:46.398Z,0.80
2018-12-09T21:00:16.295Z,1.77
2018-12-09T21:02:46.945Z,2.57
2018-12-09T21:05:16.755Z,1.03
2018-12-09T21:07:46.651Z,1.03
2018-12-09T21:10:16.526Z,1.03
2018-12-09T21:12:46.522Z,1.57
2018-12-09T21:15:16.783Z,1.17
2018-12-09T21:17:46.585Z,4.10
2018-12-09T21:20:16.372Z,2.30
2018-12-09T21:22:46.198Z,1.20
2018-12-09T21:25:16.042Z,1.07
2018-12-09T21:27:45.817Z,1.03
2018-12-09T21:30:15.775Z,0.60
2018-12-09T21:32:45.615Z,1.13
2018-12-09T21:35:15.496Z,1.00
2018-12-09T21:37:45.305Z,0.67
2018-12-09T21:40:15.166Z,0.90
2018-12-09T21:42:45.059Z,1.47
2018-12-09T21:45:14.881Z,1.80
2018-12-09T21:47:44.723Z,0.50
2018-12-09T21:50:14.696Z,0.93
2018-12-09T21:52:44.514Z,4.03
2018-12-09T21:55:14.455Z,0.63
2018-12-09T21:57:44.349Z,1.73
2018-12-09T22:00:15.207Z,1.13
2018-12-09T22:02:46.109Z,1.13
2018-12-09T22:05:15.905Z,1.10
2018-12-09T22:07:45.644Z,0.77
2018-12-09T22:10:15.484Z,1.10
2018-12-09T22:12:45.876Z,1.00
2018-12-09T22:15:15.716Z,1.60
2018-12-09T22:17:45.647Z,0.60
2018-12-09T22:20:15.540Z,2.03
2018-12-09T22:22:45.679Z,0.67
2018-12-09T22:25:15.542Z,1.47
2018-12-09T22:27:45.629Z,1.37
2018-12-09T22:30:15.355Z,0.53
2018-12-09T22:32:45.494Z,0.60
2018-12-09T22:35:15.653Z,2.23
2018-12-09T22:37:45.423Z,1.90
2018-12-09T22:40:15.300Z,3.00
2018-12-09T22:42:45.144Z,1.30
2018-12-09T22:45:15.043Z,1.43
2018-12-09T22:47:45.620Z,0.43
2018-12-09T22:50:15.488Z,0.87
2018-12-09T22:52:45.536Z,0.67
2018-12-09T22:55:15.362Z,0.60
2018-12-09T22:57:45.278Z,0.50
2018-12-09T23:00:25.099Z,2.60
2018-12-09T23:03:00.240Z,0.77
2018-12-09T23:05:30.606Z,1.23
2018-12-09T23:08:00.436Z,1.83
2018-12-09T23:10:30.503Z,16.97
2018-12-09T23:13:00.829Z,0.83
2018-12-09T23:15:30.543Z,0.63
2018-12-09T23:18:00.360Z,0.87
2018-12-09T23:20:31.759Z,0.73
2018-12-09T23:23:10.815Z,1.53
2018-12-09T23:28:20.077Z,1.50
2018-12-09T23:30:49.959Z,0.57
2018-12-09T23:33:19.809Z,0.20
2018-12-09T23:35:49.703Z,1.20
2018-12-09T23:38:19.676Z,0.50
2018-12-09T23:40:49.475Z,0.40
2018-12-09T23:43:19.245Z,0.60
2018-12-09T23:45:48.993Z,0.83
2018-12-09T23:48:18.764Z,1.00
2018-12-09T23:50:48.527Z,1.13
2018-12-09T23:53:18.397Z,0.40
2018-12-09T23:55:48.313Z,0.67
2018-12-09T23:58:18.339Z,0.70
